Time,TemperatureF,DewpointF,PressureIn,WindDirection,WindDirectionDegrees,WindSpeedMPH,WindSpeedGustMPH,Humidity,HourlyPrecipIn,Conditions,Clouds,dailyrainin,SolarRadiationWatts/m^2,SoftwareType,DateUTC
2013-01-31 04:11:00,63.0,62.0,-100.00,NNE,26,2.0,6.0,95,0.00,,,-99.99,0.000000,,2013-01-31 14:11:00,
2013-01-31 04:21:00,63.0,62.0,-100.00,NNE,26,2.0,6.0,95,0.00,,,-99.99,0.000000,,2013-01-31 14:21:00,
2013-01-31 04:31:00,63.0,62.0,-100.00,NNE,26,2.0,6.0,95,0.00,,,-99.99,0.000000,,2013-01-31 14:31:00,
2013-01-31 04:42:00,63.0,62.0,-100.00,NNE,26,2.0,6.0,95,0.00,,,-99.99,0.000000,,2013-01-31 14:42:00,
2013-01-31 05:12:00,62.0,61.0,-100.00,North,350,3.0,6.0,96,0.00,,,0.20,0.000000,,2013-01-31 15:12:00,
2013-01-31 05:22:00,62.0,61.0,-100.00,North,350,3.0,6.0,96,0.00,,,0.20,0.000000,,2013-01-31 15:22:00,
2013-01-31 05:32:00,62.0,61.0,-100.00,North,350,3.0,6.0,96,0.00,,,0.20,0.000000,,2013-01-31 15:32:00,
2013-01-31 05:42:00,62.0,61.0,-100.00,North,350,3.0,6.0,96,0.00,,,0.20,0.000000,,2013-01-31 15:42:00,
2013-01-31 06:12:00,63.0,63.0,-100.00,North,355,3.0,5.0,100,0.00,,,0.20,0.000000,,2013-01-31 16:12:00,
2013-01-31 06:21:00,63.0,63.0,-100.00,North,355,3.0,5.0,100,0.00,,,0.20,0.000000,,2013-01-31 16:21:00,
2013-01-31 06:32:00,63.0,63.0,-100.00,North,355,3.0,5.0,100,0.00,,,0.20,0.000000,,2013-01-31 16:32:00,
2013-01-31 06:41:00,63.0,63.0,-100.00,North,355,3.0,5.0,100,0.00,,,0.20,0.000000,,2013-01-31 16:41:00,
2013-01-31 07:12:00,62.0,61.0,-100.00,NNW,341,3.0,6.0,96,0.00,,,0.19,0.000000,,2013-01-31 17:12:00,
2013-01-31 07:22:00,62.0,61.0,-100.00,NNW,341,3.0,6.0,96,0.00,,,0.19,0.000000,,2013-01-31 17:22:00,
2013-01-31 07:31:00,62.0,61.0,-100.00,NNW,341,3.0,6.0,96,0.00,,,0.19,0.000000,,2013-01-31 17:31:00,
2013-01-31 07:43:00,62.0,61.0,-100.00,NNW,341,3.0,6.0,96,0.00,,,0.19,0.000000,,2013-01-31 17:43:00,
2013-01-31 08:12:00,64.0,61.0,-100.00,WNW,296,3.0,8.0,90,0.00,,,0.19,44.000000,,2013-01-31 18:12:00,
2013-01-31 08:21:00,64.0,61.0,-100.00,WNW,296,3.0,8.0,90,0.00,,,0.19,44.000000,,2013-01-31 18:21:00,
2013-01-31 08:32:00,64.0,61.0,-100.00,WNW,296,3.0,8.0,90,0.00,,,0.19,44.000000,,2013-01-31 18:32:00,
2013-01-31 08:42:00,64.0,61.0,-100.00,WNW,296,3.0,8.0,90,0.00,,,0.19,44.000000,,2013-01-31 18:42:00,
2013-01-31 09:12:00,68.0,60.0,-100.00,East,87,3.0,6.0,76,0.00,,,0.19,230.000000,,2013-01-31 19:12:00,
2013-01-31 09:21:00,68.0,60.0,-100.00,East,87,3.0,6.0,76,0.00,,,0.19,230.000000,,2013-01-31 19:21:00,
2013-01-31 09:32:00,68.0,60.0,-100.00,East,87,3.0,6.0,76,0.00,,,0.19,230.000000,,2013-01-31 19:32:00,
2013-01-31 09:42:00,68.0,60.0,-100.00,East,87,3.0,6.0,76,0.00,,,0.19,230.000000,,2013-01-31 19:42:00,
2013-01-31 10:11:00,70.0,64.0,-100.00,SE,137,3.0,6.0,81,0.00,,,0.19,350.000000,,2013-01-31 20:11:00,
2013-01-31 10:21:00,70.0,64.0,-100.00,SE,137,3.0,6.0,81,0.00,,,0.19,350.000000,,2013-01-31 20:21:00,
2013-01-31 10:31:00,70.0,64.0,-100.00,SE,137,3.0,6.0,81,0.00,,,0.19,350.000000,,2013-01-31 20:31:00,
2013-01-31 10:41:00,70.0,64.0,-100.00,SE,137,3.0,6.0,81,0.00,,,0.19,350.000000,,2013-01-31 20:41:00,
2013-01-31 11:12:00,70.0,64.0,-100.00,WNW,287,3.0,10.0,80,0.00,,,-99.99,402.000000,,2013-01-31 21:12:00,
2013-01-31 11:21:00,70.0,64.0,-100.00,WNW,287,3.0,10.0,80,0.00,,,-99.99,402.000000,,2013-01-31 21:21:00,
2013-01-31 11:31:00,70.0,64.0,-100.00,WNW,287,3.0,10.0,80,0.00,,,-99.99,402.000000,,2013-01-31 21:31:00,
2013-01-31 11:42:00,70.0,64.0,-100.00,WNW,287,3.0,10.0,80,0.00,,,-99.99,402.000000,,2013-01-31 21:42:00,
2013-01-31 12:11:00,69.0,63.0,-100.00,ESE,109,6.0,9.0,80,0.00,,,0.19,230.000000,,2013-01-31 22:11:00,
2013-01-31 12:22:00,69.0,63.0,-100.00,ESE,109,6.0,9.0,80,0.00,,,0.19,230.000000,,2013-01-31 22:22:00,
2013-01-31 12:32:00,69.0,63.0,-100.00,ESE,109,6.0,9.0,80,0.00,,,0.19,230.000000,,2013-01-31 22:32:00,
2013-01-31 12:42:00,69.0,63.0,-100.00,ESE,109,6.0,9.0,80,0.00,,,0.19,230.000000,,2013-01-31 22:42:00,
2013-01-31 13:12:00,69.0,62.0,-100.00,ESE,116,4.0,10.0,79,0.00,,,0.19,226.000000,,2013-01-31 23:12:00,
2013-01-31 13:21:00,69.0,62.0,-100.00,ESE,116,4.0,10.0,79,0.00,,,0.19,226.000000,,2013-01-31 23:21:00,
2013-01-31 13:31:00,69.0,62.0,-100.00,ESE,116,4.0,10.0,79,0.00,,,0.19,226.000000,,2013-01-31 23:31:00,
2013-01-31 13:41:00,69.0,62.0,-100.00,ESE,116,4.0,10.0,79,0.00,,,0.19,226.000000,,2013-01-31 23:41:00,
2013-01-31 14:11:00,70.0,61.0,-100.00,SE,127,2.0,7.0,74,0.00,,,0.19,221.000000,,2013-02-01 00:11:00,
2013-01-31 14:21:00,70.0,61.0,-100.00,SE,127,2.0,7.0,74,0.00,,,0.19,221.000000,,2013-02-01 00:21:00,
2013-01-31 14:31:00,70.0,61.0,-100.00,SE,127,2.0,7.0,74,0.00,,,0.19,221.000000,,2013-02-01 00:31:00,
2013-01-31 14:42:00,70.0,61.0,-100.00,SE,127,2.0,7.0,74,0.00,,,0.19,221.000000,,2013-02-01 00:42:00,
2013-01-31 16:11:00,67.0,63.0,-100.00,NW,322,4.0,6.0,87,-99.99,,,0.01,49.000000,,2013-02-01 02:11:00,
2013-01-31 16:21:00,67.0,63.0,-100.00,NW,322,4.0,6.0,87,-99.99,,,0.01,49.000000,,2013-02-01 02:21:00,
2013-01-31 16:31:00,67.0,63.0,-100.00,NW,322,4.0,6.0,87,-99.99,,,0.01,49.000000,,2013-02-01 02:31:00,
2013-01-31 16:41:00,67.0,63.0,-100.00,NW,322,4.0,6.0,87,-99.99,,,0.01,49.000000,,2013-02-01 02:41:00,
2013-01-31 17:12:00,69.0,62.0,-100.00,South,187,2.0,5.0,79,0.00,,,0.00,103.000000,,2013-02-01 03:12:00,
2013-01-31 17:21:00,69.0,62.0,-100.00,South,187,2.0,5.0,79,0.00,,,0.00,103.000000,,2013-02-01 03:21:00,
2013-01-31 17:32:00,69.0,62.0,-100.00,South,187,2.0,5.0,79,0.00,,,0.00,103.000000,,2013-02-01 03:32:00,
2013-01-31 17:41:00,69.0,62.0,-100.00,South,187,2.0,5.0,79,0.00,,,0.00,103.000000,,2013-02-01 03:41:00,
2013-01-31 18:11:00,68.0,64.0,-100.00,WSW,249,2.0,4.0,86,0.00,,,0.00,78.000000,,2013-02-01 04:11:00,
2013-01-31 18:21:00,68.0,64.0,-100.00,WSW,249,2.0,4.0,86,0.00,,,0.00,78.000000,,2013-02-01 04:21:00,
2013-01-31 18:31:00,68.0,64.0,-100.00,WSW,249,2.0,4.0,86,0.00,,,0.00,78.000000,,2013-02-01 04:31:00,
2013-01-31 18:41:00,68.0,64.0,-100.00,WSW,249,2.0,4.0,86,0.00,,,0.00,78.000000,,2013-02-01 04:41:00,
2013-01-31 19:11:00,65.0,62.0,-100.00,SSW,209,1.0,4.0,91,0.00,,,0.00,9.000000,,2013-02-01 05:11:00,
2013-01-31 19:22:00,65.0,62.0,-100.00,SSW,209,1.0,4.0,91,0.00,,,0.00,9.000000,,2013-02-01 05:22:00,
2013-01-31 19:31:00,65.0,62.0,-100.00,SSW,209,1.0,4.0,91,0.00,,,0.00,9.000000,,2013-02-01 05:31:00,
2013-01-31 19:41:00,65.0,62.0,-100.00,SSW,209,1.0,4.0,91,0.00,,,0.00,9.000000,,2013-02-01 05:41:00,
2013-01-31 20:11:00,61.0,59.0,-100.00,North,351,3.0,5.0,94,0.00,,,0.00,0.000000,,2013-02-01 06:11:00,
2013-01-31 20:21:00,61.0,59.0,-100.00,North,351,3.0,5.0,94,0.00,,,0.00,0.000000,,2013-02-01 06:21:00,
2013-01-31 20:32:00,61.0,59.0,-100.00,North,351,3.0,5.0,94,0.00,,,0.00,0.000000,,2013-02-01 06:32:00,
2013-01-31 20:41:00,61.0,59.0,-100.00,North,351,3.0,5.0,94,0.00,,,0.00,0.000000,,2013-02-01 06:41:00,
2013-01-31 21:12:00,60.0,58.0,-100.00,NNE,14,4.0,7.0,94,0.00,,,0.00,0.000000,,2013-02-01 07:12:00,
2013-01-31 21:21:00,60.0,58.0,-100.00,NNE,14,4.0,7.0,94,0.00,,,0.00,0.000000,,2013-02-01 07:21:00,
2013-01-31 21:32:00,60.0,58.0,-100.00,NNE,14,4.0,7.0,94,0.00,,,0.00,0.000000,,2013-02-01 07:32:00,
2013-01-31 21:41:00,60.0,58.0,-100.00,NNE,14,4.0,7.0,94,0.00,,,0.00,0.000000,,2013-02-01 07:41:00,
2013-01-31 22:11:00,59.0,57.0,-100.00,North,358,4.0,6.0,94,0.00,,,0.00,0.000000,,2013-02-01 08:11:00,
2013-01-31 22:21:00,59.0,57.0,-100.00,North,358,4.0,6.0,94,0.00,,,0.00,0.000000,,2013-02-01 08:21:00,
2013-01-31 22:31:00,59.0,57.0,-100.00,North,358,4.0,6.0,94,0.00,,,0.00,0.000000,,2013-02-01 08:31:00,
2013-01-31 22:42:00,59.0,57.0,-100.00,North,358,4.0,6.0,94,0.00,,,0.00,0.000000,,2013-02-01 08:42:00,
2013-01-31 23:11:00,58.0,56.0,-100.00,North,2,5.0,8.0,94,0.00,,,0.00,0.000000,,2013-02-01 09:11:00,
2013-01-31 23:21:00,58.0,56.0,-100.00,North,2,5.0,8.0,94,0.00,,,0.00,0.000000,,2013-02-01 09:21:00,
2013-01-31 23:32:00,58.0,56.0,-100.00,North,2,5.0,8.0,94,0.00,,,0.00,0.000000,,2013-02-01 09:32:00,
2013-01-31 23:41:00,58.0,56.0,-100.00,North,2,5.0,8.0,94,0.00,,,0.00,0.000000,,2013-02-01 09:41:00,